This is the latest recevied weather packets stored in our database for station/object KC9MWQ-13. If no packets are shown the sender has not sent any weather packets the latest 10 day(s).
| Time | Temp. | Humidity | Pressure | Rain* | Wind** | Luminosity | Snow |
|---|---|---|---|---|---|---|---|
| 1777245214 | 16.67° C | 80% | 1017.6 hPa | 0 mm | - | 61 W/m² | - |
| 1777244910 | 16.67° C | 80% | 1017.5 hPa | 0 mm | - | 85 W/m² | - |
| 1777244606 | 16.67° C | 79% | 1017.5 hPa | 0 mm | - | 94 W/m² | - |
| 1777244302 | 16.67° C | 79% | 1017.4 hPa | 0 mm | - | 111 W/m² | - |
| 1777244000 | 16.67° C | 79% | 1017.4 hPa | 0 mm | - | 117 W/m² | - |
| 1777243697 | 16.67° C | 78% | 1017.5 hPa | 0 mm | - | 137 W/m² | - |
| 1777243394 | 16.67° C | 78% | 1017.3 hPa | 0 mm | - | 157 W/m² | - |
| 1777243090 | 16.67° C | 79% | 1017.4 hPa | 0 mm | - | 173 W/m² | - |
| 1777242786 | 16.67° C | 79% | 1017.3 hPa | 0 mm | - | 199 W/m² | - |
| 1777242483 | 16.11° C | 79% | 1017.3 hPa | 0 mm | - | 216 W/m² | - |
| 1777242179 | 16.11° C | 80% | 1017.6 hPa | 0 mm | - | 185 W/m² | - |
| 1777241876 | 16.67° C | 79% | 1017.7 hPa | 0 mm | - | 147 W/m² | - |
| 1777241574 | 16.67° C | 78% | 1017.9 hPa | 0 mm | - | 150 W/m² | - |
| 1777241271 | 16.67° C | 77% | 1017.7 hPa | 0 mm | - | 228 W/m² | - |
| 1777240968 | 16.67° C | 78% | 1017.9 hPa | 0 mm | - | 262 W/m² | - |
| 1777240666 | 16.67° C | 78% | 1017.8 hPa | 0 mm | - | 301 W/m² | - |
| 1777240364 | 16.67° C | 79% | 1017.9 hPa | 0 mm | - | 280 W/m² | - |
| 1777240061 | 16.67° C | 78% | 1017.7 hPa | 0 mm | - | 331 W/m² | - |
| 1777239759 | 16.67° C | 77% | 1017.9 hPa | 0 mm | - | 391 W/m² | - |
| 1777239455 | 16.67° C | 78% | 1018.3 hPa | 0 mm | - | 378 W/m² | - |
| 1777239152 | 16.11° C | 78% | 1018.1 hPa | 0 mm | - | 393 W/m² | - |
| 1777238849 | 16.11° C | 78% | 1018.1 hPa | 0 mm | - | 409 W/m² | - |
| 1777238546 | 16.11° C | 79% | 1018.5 hPa | 0 mm | - | 365 W/m² | - |
| 1777238242 | 15.56° C | 79% | 1018.2 hPa | 0 mm | - | 379 W/m² | - |
| 1777237940 | 16.11° C | 79% | 1018.4 hPa | 0 mm | - | 384 W/m² | - |
* Rain latest hour (hover to see other rain measurements)
** Current wind speed in m/s (hover to see current wind gust speed)